CheckWX is a tool to help pilots better visualize weather data.  It is not intended as a substitute for an official pre-flight weather briefing.

02:04:59 UTC

LYBT TAF
Batajnica Air Base Airport
Batajnica, Serbia
TAF LYBT 050500Z 0506/0606 29008KT 9999 SCT045 TX29/0514Z TN18/0603Z

Jul-5@
06:00 UTC

Jul-5 @ 06:00 UTC

Jul-6@
06:00 UTC

Jul-6 @ 06:00 UTC

TAF LYBT 050500Z 0506/0606 29008KT 9999 SCT045 TX29/0514Z TN18/0603Z
Wind
  • 290° at 8 KTS
Cloud Levels
  • Scattered at 4,500' AGL